Time;durP1;ratioP1;P1;durP2;ratioP2;P2;SDS_P1;SDS_P2;PMS_P1;PMS_P2;Temp;Humidity;BMP_temperature;BMP_pressure;BME280_temperature;BME280_humidity;BME280_pressure;Samples;Min_cycle;Max_cycle;Signal;HPM_P1;HPM_P2
2021/10/01 00:00:17;;;;;;;3.83;1.02;;;12.00;92.30;;;;;;5055591;28;20049;-63
2021/10/01 00:02:43;;;;;;;2.83;0.95;;;12.00;92.30;;;;;;5051954;28;20424;-64
2021/10/01 00:05:09;;;;;;;4.80;0.90;;;12.00;92.40;;;;;;5044961;28;20425;-64
2021/10/01 00:07:34;;;;;;;6.18;0.93;;;12.00;92.50;;;;;;5055073;28;20495;-64
2021/10/01 00:10:00;;;;;;;6.13;0.90;;;12.00;92.70;;;;;;5055293;28;20384;-64
2021/10/01 00:12:26;;;;;;;4.25;0.90;;;12.00;92.80;;;;;;5053897;28;20473;-64
2021/10/01 00:14:51;;;;;;;4.18;1.13;;;12.00;92.90;;;;;;5049846;28;20028;-64
2021/10/01 00:17:17;;;;;;;4.90;1.30;;;12.00;92.90;;;;;;5035479;28;20021;-64
2021/10/01 00:19:43;;;;;;;6.45;0.95;;;12.00;92.90;;;;;;5049182;28;20035;-64
2021/10/01 00:22:09;;;;;;;4.88;1.15;;;12.00;92.80;;;;;;5035303;28;20104;-64
2021/10/01 00:24:35;;;;;;;5.95;1.17;;;12.00;92.70;;;;;;5050257;28;20032;-64
2021/10/01 00:27:01;;;;;;;5.57;1.02;;;12.00;92.50;;;;;;5055214;28;20013;-64
2021/10/01 00:29:27;;;;;;;4.03;0.80;;;12.00;92.40;;;;;;5055053;28;20021;-64
2021/10/01 00:31:52;;;;;;;4.15;0.82;;;12.10;92.40;;;;;;5052985;28;20025;-64
2021/10/01 00:34:18;;;;;;;3.90;1.10;;;12.00;92.30;;;;;;5042487;28;20060;-64
2021/10/01 00:36:44;;;;;;;5.88;0.88;;;12.10;92.10;;;;;;5054769;28;20500;-64
2021/10/01 00:39:09;;;;;;;3.63;0.93;;;12.10;92.10;;;;;;5033679;28;20053;-64
2021/10/01 00:41:39;;;;;;;4.47;0.90;;;12.10;92.20;;;;;;5046390;28;20429;-64
2021/10/01 00:44:05;;;;;;;3.80;0.70;;;12.00;92.40;;;;;;5052797;28;20057;-64
2021/10/01 00:46:31;;;;;;;4.43;0.95;;;12.00;92.30;;;;;;5044797;28;20030;-64
2021/10/01 00:48:57;;;;;;;4.28;0.60;;;12.00;92.30;;;;;;5036553;28;20604;-64
2021/10/01 00:51:25;;;;;;;4.45;1.27;;;11.90;92.30;;;;;;5053519;28;20025;-64
2021/10/01 00:53:52;;;;;;;3.65;0.60;;;11.90;92.40;;;;;;5053580;28;20104;-64
2021/10/01 00:56:19;;;;;;;2.65;1.40;;;11.90;92.40;;;;;;5041207;28;20021;-64
2021/10/01 00:58:44;;;;;;;4.47;0.82;;;11.90;92.30;;;;;;5053400;28;20392;-64
2021/10/01 01:01:10;;;;;;;2.63;0.70;;;11.90;92.40;;;;;;5038873;28;20025;-64
2021/10/01 01:03:44;;;;;;;3.55;0.70;;;11.90;92.30;;;;;;5054604;28;20035;-64
2021/10/01 01:06:47;;;;;;;3.67;0.90;;;11.90;92.30;;;;;;5040166;28;20025;-64
2021/10/01 01:09:31;;;;;;;8.07;1.20;;;11.90;92.30;;;;;;5035097;28;20153;-64
2021/10/01 01:12:09;;;;;;;4.13;0.90;;;11.90;92.20;;;;;;5034607;28;20029;-64
2021/10/01 01:14:53;;;;;;;3.78;0.70;;;11.90;92.10;;;;;;5036476;28;20033;-64
2021/10/01 01:17:36;;;;;;;5.35;0.90;;;12.00;92.30;;;;;;5054666;28;20025;-64
2021/10/01 01:20:19;;;;;;;6.22;0.85;;;11.90;92.30;;;;;;5053277;28;20047;-64
2021/10/01 01:23:10;;;;;;;5.43;0.95;;;11.90;92.30;;;;;;5052988;28;20021;-64
2021/10/01 01:26:13;;;;;;;3.95;0.80;;;11.90;92.40;;;;;;5053363;28;20503;-64
2021/10/01 01:29:04;;;;;;;6.30;0.90;;;11.90;92.50;;;;;;5053907;28;20037;-64
2021/10/01 01:31:56;;;;;;;6.50;0.98;;;11.90;92.50;;;;;;5052934;28;20037;-64
2021/10/01 01:34:29;;;;;;;2.85;0.73;;;11.90;92.60;;;;;;5052950;28;20025;-64
2021/10/01 01:36:58;;;;;;;6.97;0.90;;;11.80;92.80;;;;;;5054265;28;20025;-64
2021/10/01 01:39:26;;;;;;;3.88;0.77;;;11.80;92.80;;;;;;5053907;28;20025;-64
2021/10/01 01:41:56;;;;;;;7.57;0.95;;;11.90;92.80;;;;;;5054021;28;20083;-64
2021/10/01 01:44:23;;;;;;;4.18;0.70;;;11.90;92.70;;;;;;5053641;28;20079;-64
2021/10/01 01:46:49;;;;;;;2.45;0.70;;;11.90;92.60;;;;;;5052797;28;20029;-64
2021/10/01 01:49:17;;;;;;;3.47;0.85;;;11.90;92.60;;;;;;5053874;28;20477;-64
2021/10/01 01:51:44;;;;;;;4.15;0.90;;;11.90;92.60;;;;;;5053815;28;20086;-64
2021/10/01 01:54:11;;;;;;;5.72;1.42;;;11.90;92.60;;;;;;5052198;28;20032;-64
2021/10/01 01:56:38;;;;;;;6.03;0.75;;;11.90;92.60;;;;;;5053731;28;20040;-64
2021/10/01 01:59:06;;;;;;;4.30;0.90;;;11.90;92.60;;;;;;5052462;28;20041;-64
2021/10/01 02:01:33;;;;;;;3.42;0.70;;;12.00;92.50;;;;;;5053546;28;20028;-64
2021/10/01 02:04:00;;;;;;;3.30;0.80;;;12.00;92.40;;;;;;5053570;28;20435;-64
2021/10/01 02:06:26;;;;;;;2.67;0.63;;;12.00;92.30;;;;;;5053610;28;20461;-64
2021/10/01 02:08:53;;;;;;;4.75;0.60;;;12.00;92.40;;;;;;5053324;28;20043;-64
2021/10/01 02:11:19;;;;;;;3.33;0.63;;;12.00;92.30;;;;;;5053503;28;20481;-64
2021/10/01 02:13:46;;;;;;;4.20;0.80;;;12.00;92.40;;;;;;5053284;28;20086;-64
2021/10/01 02:16:13;;;;;;;4.82;0.90;;;12.00;92.30;;;;;;5053463;28;20393;-64
2021/10/01 02:18:42;;;;;;;2.92;0.70;;;12.00;92.30;;;;;;5053219;28;20028;-64
2021/10/01 02:21:09;;;;;;;2.63;0.70;;;12.00;92.40;;;;;;5051091;28;20070;-63
2021/10/01 02:23:34;;;;;;;4.97;0.88;;;12.00;92.40;;;;;;5053046;28;20098;-64
2021/10/01 02:28:57;;;;;;;5.22;1.00;;;12.10;92.30;;;;;;5053207;28;20544;-64
2021/10/01 02:31:31;;;;;;;5.72;0.75;;;12.10;92.00;;;;;;5053291;28;20136;-64
2021/10/01 02:34:00;;;;;;;4.20;0.80;;;12.10;92.00;;;;;;5051774;28;20029;-64
2021/10/01 02:36:26;;;;;;;;;;;12.10;92.00;;;;;;5052207;28;20025;-64
2021/10/01 02:38:52;;;;;;;3.78;0.68;;;12.10;92.00;;;;;;5053144;28;19999;-64
2021/10/01 02:41:18;;;;;;;3.75;1.70;;;12.10;92.00;;;;;;5052843;28;20032;-64
2021/10/01 02:43:43;;;;;;;2.38;0.60;;;12.10;91.80;;;;;;5052602;28;20052;-64
2021/10/01 02:46:09;;;;;;;3.80;0.85;;;12.20;91.60;;;;;;5053136;28;20021;-64
2021/10/01 02:48:36;;;;;;;5.13;1.08;;;12.20;91.50;;;;;;5051615;28;20029;-64
2021/10/01 02:51:07;;;;;;;4.68;1.00;;;12.20;91.50;;;;;;5052702;28;20045;-64
2021/10/01 02:53:44;;;;;;;4.25;0.70;;;12.30;91.50;;;;;;5052754;28;20116;-64
2021/10/01 02:56:17;;;;;;;5.22;0.88;;;12.30;91.30;;;;;;5052881;28;20033;-64
2021/10/01 02:58:51;;;;;;;4.15;0.63;;;12.20;91.20;;;;;;5051923;28;20116;-64
2021/10/01 03:01:17;;;;;;;4.75;0.82;;;12.20;91.40;;;;;;5032581;28;20112;-64
2021/10/01 03:03:44;;;;;;;8.48;1.08;;;12.20;91.40;;;;;;5032725;28;20485;-64
2021/10/01 03:06:11;;;;;;;6.68;0.80;;;12.20;91.30;;;;;;5032799;28;20105;-64
2021/10/01 03:08:38;;;;;;;4.20;0.73;;;12.20;91.30;;;;;;5032814;28;20029;-64
2021/10/01 03:11:10;;;;;;;3.92;0.70;;;12.10;91.50;;;;;;5031300;28;20029;-64
2021/10/01 03:13:38;;;;;;;4.03;0.70;;;12.10;91.60;;;;;;5032808;28;20057;-64
2021/10/01 03:16:05;;;;;;;4.30;0.50;;;12.00;91.70;;;;;;5031524;28;20064;-65
2021/10/01 03:18:32;;;;;;;3.70;0.82;;;12.00;91.80;;;;;;5032832;28;20079;-64
2021/10/01 03:21:00;;;;;;;3.42;0.90;;;12.00;91.90;;;;;;5052610;28;20516;-64
2021/10/01 03:23:25;;;;;;;3.75;0.60;;;12.00;91.80;;;;;;5052443;28;20064;-64
2021/10/01 03:25:52;;;;;;;4.72;0.80;;;12.00;91.90;;;;;;5052219;28;20064;-64
2021/10/01 03:28:18;;;;;;;5.30;0.68;;;12.00;91.90;;;;;;5052634;28;20037;-64
2021/10/01 03:30:46;;;;;;;2.85;0.63;;;12.00;91.80;;;;;;5052481;28;20037;-63
2021/10/01 03:33:11;;;;;;;3.95;0.73;;;12.00;91.60;;;;;;5055026;28;20035;-64
2021/10/01 03:35:40;;;;;;;5.20;0.80;;;12.00;91.70;;;;;;5056330;28;20469;-63
2021/10/01 03:38:08;;;;;;;4.13;0.80;;;12.00;91.50;;;;;;5055180;28;20025;-64
2021/10/01 03:40:34;;;;;;;5.13;1.40;;;12.00;91.50;;;;;;5056131;28;20029;-64
2021/10/01 03:42:59;;;;;;;6.95;0.70;;;12.00;91.60;;;;;;5056305;28;20365;-64
2021/10/01 03:45:25;;;;;;;3.67;0.70;;;12.00;91.60;;;;;;5054714;28;20483;-64
2021/10/01 03:47:52;;;;;;;4.40;1.00;;;11.90;91.60;;;;;;5055030;28;20021;-64
2021/10/01 03:50:18;;;;;;;2.28;0.60;;;11.90;91.70;;;;;;5056119;28;20103;-64
2021/10/01 03:52:44;;;;;;;4.25;1.10;;;11.90;91.70;;;;;;5055929;28;20112;-64
2021/10/01 03:55:12;;;;;;;6.40;1.10;;;11.90;91.60;;;;;;5056260;28;20380;-64
2021/10/01 03:57:38;;;;;;;4.63;0.70;;;11.90;91.40;;;;;;5055956;28;20025;-64
2021/10/01 04:00:05;;;;;;;3.13;0.70;;;11.90;91.40;;;;;;5055950;28;20502;-64
2021/10/01 04:02:31;;;;;;;3.40;0.90;;;11.90;91.50;;;;;;5056181;28;20354;-64
2021/10/01 04:04:56;;;;;;;5.60;0.88;;;11.90;91.50;;;;;;5055841;28;20056;-64
2021/10/01 04:07:22;;;;;;;5.18;0.88;;;11.90;91.60;;;;;;5055767;28;20025;-64
2021/10/01 04:09:47;;;;;;;3.10;0.82;;;11.90;91.60;;;;;;5055882;28;20465;-64
2021/10/01 04:12:13;;;;;;;4.40;1.20;;;11.80;91.60;;;;;;5055673;28;20028;-64
2021/10/01 04:14:38;;;;;;;2.08;0.70;;;11.80;91.70;;;;;;5055626;28;20044;-64
2021/10/01 04:17:04;;;;;;;3.60;0.70;;;11.80;91.90;;;;;;5054404;28;20031;-64
2021/10/01 04:19:30;;;;;;;4.35;0.90;;;11.80;91.90;;;;;;5055562;28;20027;-64
2021/10/01 04:21:55;;;;;;;5.45;0.80;;;11.70;91.80;;;;;;5055495;28;20029;-64
2021/10/01 04:24:21;;;;;;;4.70;0.80;;;11.70;91.90;;;;;;5055355;28;20040;-64
2021/10/01 04:26:46;;;;;;;4.40;0.70;;;11.70;92.00;;;;;;5055385;28;20056;-64
2021/10/01 04:29:12;;;;;;;6.55;0.90;;;11.60;92.00;;;;;;5055458;28;20037;-64
2021/10/01 04:31:37;;;;;;;2.30;0.70;;;11.60;92.00;;;;;;5054144;28;20049;-64
2021/10/01 04:34:04;;;;;;;2.10;0.70;;;11.60;92.00;;;;;;5055278;28;20106;-64
2021/10/01 04:36:32;;;;;;;6.10;0.75;;;11.60;91.90;;;;;;5055270;28;20542;-64
2021/10/01 04:38:58;;;;;;;3.45;0.90;;;11.60;91.70;;;;;;5055303;28;20456;-64
2021/10/01 04:41:23;;;;;;;2.88;0.70;;;11.60;91.70;;;;;;5055251;28;20104;-64
2021/10/01 04:43:49;;;;;;;2.38;0.70;;;11.60;91.70;;;;;;5053716;28;20531;-64
2021/10/01 04:46:15;;;;;;;4.88;0.77;;;11.70;91.70;;;;;;5055123;28;20037;-64
2021/10/01 04:48:40;;;;;;;3.38;0.68;;;11.70;91.70;;;;;;5055165;28;20512;-64
2021/10/01 04:51:06;;;;;;;2.60;0.80;;;11.70;91.60;;;;;;5054993;28;20119;-64
2021/10/01 04:53:31;;;;;;;2.83;0.65;;;11.70;91.50;;;;;;5054806;28;20094;-64
2021/10/01 04:55:57;;;;;;;4.70;1.08;;;11.70;91.50;;;;;;5054946;28;20102;-64
2021/10/01 04:58:22;;;;;;;2.72;0.80;;;11.70;91.60;;;;;;5054890;28;20032;-64
2021/10/01 05:00:48;;;;;;;5.75;0.90;;;11.70;91.50;;;;;;5054998;28;20033;-64
2021/10/01 05:03:13;;;;;;;4.60;0.80;;;11.70;91.40;;;;;;5054703;28;20033;-64
2021/10/01 05:05:39;;;;;;;6.50;1.33;;;11.70;91.40;;;;;;5054611;28;20021;-64
2021/10/01 05:08:04;;;;;;;5.88;0.63;;;11.70;91.30;;;;;;5054728;28;20021;-64
2021/10/01 05:10:30;;;;;;;3.88;0.70;;;11.80;91.20;;;;;;5054676;28;20385;-64
2021/10/01 05:12:56;;;;;;;4.47;0.88;;;11.80;91.20;;;;;;5053339;28;20025;-64
2021/10/01 05:15:23;;;;;;;3.85;0.70;;;11.80;91.20;;;;;;5054597;28;20389;-64
2021/10/01 05:17:50;;;;;;;4.07;0.80;;;11.80;90.90;;;;;;5054617;28;20511;-64
2021/10/01 05:20:15;;;;;;;4.40;0.85;;;11.90;90.70;;;;;;5054330;28;20487;-64
2021/10/01 05:22:41;;;;;;;5.18;1.15;;;11.90;90.70;;;;;;5054200;28;20029;-64
2021/10/01 05:25:07;;;;;;;4.63;0.85;;;12.00;90.70;;;;;;5053904;28;20021;-64
2021/10/01 05:27:33;;;;;;;5.25;0.98;;;12.00;90.40;;;;;;5052158;28;20096;-64
2021/10/01 05:29:59;;;;;;;5.13;1.00;;;12.00;90.40;;;;;;5053980;28;20029;-64
2021/10/01 05:32:24;;;;;;;4.72;0.60;;;12.00;90.40;;;;;;5047689;28;20033;-64
2021/10/01 05:34:51;;;;;;;3.03;0.90;;;12.00;90.10;;;;;;5038053;28;20468;-64
2021/10/01 05:37:17;;;;;;;2.15;0.55;;;12.10;90.20;;;;;;5038912;28;20075;-63
2021/10/01 05:39:43;;;;;;;3.03;0.70;;;12.10;90.10;;;;;;5032014;28;20029;-64
2021/10/01 05:42:08;;;;;;;3.75;0.77;;;12.10;90.20;;;;;;5049632;28;20028;-64
2021/10/01 05:44:34;;;;;;;2.35;1.08;;;12.10;90.30;;;;;;5036884;28;20053;-64
2021/10/01 05:47:02;;;;;;;5.60;0.68;;;12.10;90.30;;;;;;5033738;28;20013;-64
2021/10/01 05:49:37;;;;;;;3.38;0.90;;;12.10;90.20;;;;;;5044489;28;20025;-64
2021/10/01 05:52:49;;;;;;;4.32;0.95;;;12.10;90.30;;;;;;5034811;28;20100;-64
2021/10/01 05:54:55;;;;;;;2.28;0.80;;;12.10;90.00;;;;;;5033496;28;20095;-64
2021/10/01 05:57:22;;;;;;;3.00;0.65;;;12.10;90.10;;;;;;5035388;28;20021;-64
2021/10/01 05:59:48;;;;;;;5.47;0.70;;;12.10;90.00;;;;;;5040961;28;20017;-63
2021/10/01 06:02:16;;;;;;;2.97;0.60;;;12.10;90.00;;;;;;5039632;28;21218;-64
2021/10/01 06:04:42;;;;;;;2.90;0.73;;;12.10;89.80;;;;;;5043332;28;20025;-64
2021/10/01 06:07:08;;;;;;;3.10;0.73;;;12.20;90.40;;;;;;5035914;28;20444;-64
2021/10/01 06:09:35;;;;;;;3.75;1.08;;;12.20;90.00;;;;;;5044112;28;20030;-63
2021/10/01 06:12:01;;;;;;;3.50;0.88;;;12.20;89.80;;;;;;5044739;28;20024;-63
2021/10/01 06:14:26;;;;;;;4.20;0.60;;;12.20;90.10;;;;;;5030558;28;20022;-64
2021/10/01 06:16:53;;;;;;;3.55;0.70;;;12.20;90.00;;;;;;5034675;28;20056;-64
2021/10/01 06:19:20;;;;;;;4.85;0.70;;;12.20;90.00;;;;;;5038558;28;20462;-64
2021/10/01 06:21:46;;;;;;;3.08;0.52;;;12.20;90.00;;;;;;5046959;28;20036;-64
2021/10/01 06:24:12;;;;;;;4.65;0.68;;;12.30;90.10;;;;;;5036382;28;20051;-64
2021/10/01 06:26:37;;;;;;;3.78;0.60;;;12.20;90.00;;;;;;5037561;28;20084;-64
2021/10/01 06:29:03;;;;;;;1.75;0.50;;;12.20;90.10;;;;;;5032991;28;20064;-64
2021/10/01 06:31:29;;;;;;;2.55;1.05;;;12.30;90.10;;;;;;5034789;28;20020;-64
2021/10/01 06:33:55;;;;;;;4.50;0.70;;;12.30;89.90;;;;;;5039643;28;20106;-64
2021/10/01 06:36:23;;;;;;;4.45;0.93;;;12.30;90.10;;;;;;5031363;28;20025;-64
2021/10/01 06:38:51;;;;;;;2.65;0.70;;;12.30;90.10;;;;;;5036459;28;20025;-63
2021/10/01 06:41:17;;;;;;;4.22;0.80;;;12.30;90.20;;;;;;5035226;28;20053;-64
2021/10/01 06:43:44;;;;;;;3.10;0.70;;;12.30;89.90;;;;;;5034088;28;20512;-63
2021/10/01 06:46:27;;;;;;;1.83;0.60;;;12.40;90.10;;;;;;5030800;28;20048;-64
2021/10/01 06:49:22;;;;;;;3.50;0.50;;;12.40;90.20;;;;;;5032434;28;20026;-64
2021/10/01 06:52:12;;;;;;;3.90;0.88;;;12.40;90.20;;;;;;5041061;28;20473;-64
2021/10/01 08:19:23;;;;;;;2.53;0.55;;;13.60;87.50;;;;;;5037911;28;20032;-65
2021/10/01 08:21:51;;;;;;;4.10;0.70;;;13.60;87.60;;;;;;5034842;28;20029;-65
2021/10/01 08:24:17;;;;;;;2.83;0.73;;;13.70;89.20;;;;;;5039298;28;20517;-64
2021/10/01 08:26:44;;;;;;;3.03;0.70;;;13.60;90.40;;;;;;5041833;28;20064;-65
2021/10/01 08:29:10;;;;;;;2.95;0.70;;;13.50;90.80;;;;;;5043865;28;20147;-64
2021/10/01 08:31:35;;;;;;;5.22;0.60;;;13.50;91.50;;;;;;5045861;28;20484;-65
2021/10/01 08:34:01;;;;;;;5.88;1.08;;;13.50;91.80;;;;;;5046037;28;20032;-65
2021/10/01 08:36:27;;;;;;;6.93;0.77;;;13.50;92.20;;;;;;5054733;28;20075;-64
2021/10/01 08:38:52;;;;;;;3.63;0.70;;;13.50;91.70;;;;;;5043227;28;20033;-63
2021/10/01 08:41:19;;;;;;;8.27;2.03;;;13.60;91.00;;;;;;5044608;28;20032;-64
2021/10/01 08:43:45;;;;;;;5.13;0.70;;;13.70;91.60;;;;;;5043788;28;20115;-64
2021/10/01 08:46:12;;;;;;;4.97;0.77;;;13.80;91.00;;;;;;5050068;28;20684;-64
2021/10/01 08:48:38;;;;;;;5.40;0.50;;;13.90;90.40;;;;;;5050661;28;20366;-63
2021/10/01 08:51:06;;;;;;;4.85;0.65;;;14.10;90.40;;;;;;5051987;28;20032;-63
2021/10/01 08:53:33;;;;;;;3.80;0.60;;;14.20;90.30;;;;;;5038362;28;20068;-64
2021/10/01 08:55:58;;;;;;;4.32;0.80;;;14.30;89.20;;;;;;5034845;28;20034;-64
2021/10/01 08:58:26;;;;;;;1.92;0.57;;;14.40;89.50;;;;;;5048277;28;20021;-64
2021/10/01 09:00:53;;;;;;;2.85;0.57;;;14.50;89.40;;;;;;5038756;28;20159;-64
2021/10/01 09:03:19;;;;;;;2.80;0.50;;;14.60;89.30;;;;;;5042600;28;20048;-64
2021/10/01 09:05:44;;;;;;;2.20;0.60;;;14.60;90.30;;;;;;5036546;28;20068;-64
2021/10/01 09:08:16;;;;;;;4.13;0.68;;;14.60;88.80;;;;;;5046114;28;20101;-64
2021/10/01 09:10:42;;;;;;;2.60;1.08;;;14.50;90.00;;;;;;5050420;28;20080;-64
2021/10/01 09:13:11;;;;;;;6.45;1.50;;;14.30;90.60;;;;;;5047166;28;20029;-64
2021/10/01 09:15:41;;;;;;;2.97;0.80;;;14.20;90.80;;;;;;5034337;28;20104;-64
2021/10/01 09:18:07;;;;;;;5.45;0.73;;;14.10;90.70;;;;;;5034188;28;20056;-64
2021/10/01 09:20:33;;;;;;;6.28;1.00;;;14.00;91.10;;;;;;5040183;28;20482;-64
2021/10/01 09:23:17;;;;;;;4.55;0.77;;;14.00;91.10;;;;;;5033936;28;20477;-64
2021/10/01 09:25:43;;;;;;;4.22;0.57;;;14.00;90.90;;;;;;5034157;28;20076;-64
2021/10/01 09:28:12;;;;;;;3.88;0.88;;;14.00;91.20;;;;;;5047634;28;20496;-64
2021/10/01 09:30:49;;;;;;;3.30;1.02;;;14.00;91.60;;;;;;5032190;28;20025;-64
2021/10/01 09:33:19;;;;;;;4.78;0.80;;;14.10;91.60;;;;;;5050958;28;20029;-64
2021/10/01 09:35:45;;;;;;;3.13;0.85;;;14.10;91.40;;;;;;5042591;28;20033;-64
2021/10/01 09:38:17;;;;;;;2.38;0.77;;;14.10;91.40;;;;;;5035866;28;20100;-64
2021/10/01 09:40:45;;;;;;;4.47;1.13;;;14.20;91.50;;;;;;5043628;28;20076;-64
2021/10/01 09:43:31;;;;;;;4.63;0.63;;;14.30;92.00;;;;;;5034609;28;20017;-64
2021/10/01 09:46:08;;;;;;;3.03;0.70;;;14.30;91.20;;;;;;5041275;28;20401;-64
2021/10/01 09:48:35;;;;;;;5.95;0.90;;;14.30;91.50;;;;;;5038095;28;20029;-64
2021/10/01 09:51:13;;;;;;;6.90;0.80;;;14.40;91.20;;;;;;5042669;28;20021;-64
2021/10/01 09:53:43;;;;;;;5.55;0.73;;;14.60;91.40;;;;;;5044145;28;20020;-64
2021/10/01 09:56:31;;;;;;;5.60;1.10;;;14.70;91.40;;;;;;5053367;28;20032;-64
2021/10/01 09:59:03;;;;;;;3.58;1.05;;;14.80;90.90;;;;;;5033510;28;20025;-64
2021/10/01 10:01:29;;;;;;;5.15;0.70;;;14.80;91.30;;;;;;5046385;28;20013;-64
2021/10/01 10:03:54;;;;;;;4.78;0.73;;;14.90;91.60;;;;;;5051462;28;20112;-64
2021/10/01 10:06:20;;;;;;;7.07;1.63;;;14.90;90.40;;;;;;5033488;28;20030;-64
2021/10/01 10:08:46;;;;;;;4.18;0.90;;;15.10;90.10;;;;;;5032159;28;20079;-64
2021/10/01 10:11:17;;;;;;;4.68;1.10;;;15.20;90.00;;;;;;5046841;28;20026;-64
2021/10/01 10:13:44;;;;;;;3.92;0.70;;;15.40;90.10;;;;;;5033275;28;20053;-64
2021/10/01 10:16:11;;;;;;;4.47;1.13;;;15.60;89.50;;;;;;5046884;28;20100;-64
2021/10/01 10:18:38;;;;;;;6.53;1.08;;;15.70;86.40;;;;;;5042755;28;20025;-64
2021/10/01 10:21:03;;;;;;;5.32;1.05;;;15.90;85.90;;;;;;5049003;28;20485;-64
2021/10/01 10:23:29;;;;;;;3.67;0.88;;;16.10;86.30;;;;;;5052499;28;20074;-64
2021/10/01 10:26:00;;;;;;;2.90;0.98;;;16.20;83.80;;;;;;5042320;28;20032;-64
2021/10/01 10:28:26;;;;;;;4.30;0.70;;;16.20;83.50;;;;;;5036155;28;20028;-64
2021/10/01 10:30:52;;;;;;;7.72;0.90;;;16.20;83.30;;;;;;5043318;28;20419;-64
2021/10/01 10:33:37;;;;;;;3.38;0.90;;;16.20;83.50;;;;;;5034053;28;20504;-64
2021/10/01 10:36:29;;;;;;;3.42;0.65;;;16.20;82.20;;;;;;5052593;28;20369;-64
2021/10/01 10:38:56;;;;;;;4.72;1.00;;;16.20;83.40;;;;;;5032857;28;20815;-63
2021/10/01 10:41:22;;;;;;;3.13;0.90;;;16.40;82.30;;;;;;5042668;28;20086;-64
2021/10/01 10:43:49;;;;;;;3.75;0.68;;;16.50;82.90;;;;;;5047075;28;20084;-64
2021/10/01 10:46:45;;;;;;;3.42;1.00;;;16.50;83.00;;;;;;5048946;28;20027;-64
2021/10/01 10:49:22;;;;;;;6.15;0.88;;;16.60;82.20;;;;;;5051324;28;20093;-64
2021/10/01 10:52:20;;;;;;;5.57;0.93;;;16.70;83.30;;;;;;5051360;28;20025;-64
2021/10/01 10:55:11;;;;;;;3.60;0.68;;;17.20;81.30;;;;;;5037290;28;20033;-64
2021/10/01 10:57:37;;;;;;;3.47;0.93;;;17.20;80.20;;;;;;5049903;28;20020;-64
2021/10/01 11:00:28;;;;;;;6.78;0.60;;;17.10;80.10;;;;;;5046321;28;20069;-64
2021/10/01 11:03:17;;;;;;;2.60;0.93;;;17.10;80.20;;;;;;5050626;28;20018;-64
2021/10/01 11:05:43;;;;;;;3.70;0.68;;;16.90;80.30;;;;;;5051471;28;20028;-64
2021/10/01 11:08:22;;;;;;;6.25;0.95;;;16.80;81.30;;;;;;5048917;28;20138;-63
2021/10/01 11:10:49;;;;;;;5.43;1.77;;;16.70;82.00;;;;;;5044429;28;20119;-64
2021/10/01 11:13:18;;;;;;;6.35;0.77;;;16.70;82.10;;;;;;5038695;28;20036;-64
2021/10/01 11:16:08;;;;;;;2.58;0.70;;;16.60;81.40;;;;;;5044705;28;20032;-63
2021/10/01 11:18:46;;;;;;;5.25;1.42;;;16.70;79.80;;;;;;5046020;28;20029;-64
2021/10/01 11:21:27;;;;;;;3.08;0.70;;;17.40;80.60;;;;;;5045700;28;20377;-64
2021/10/01 11:24:11;;;;;;;2.28;0.88;;;18.00;78.50;;;;;;5047827;28;20025;-64
2021/10/01 11:26:49;;;;;;;2.17;0.82;;;17.60;76.80;;;;;;5047830;28;20104;-64
2021/10/01 11:29:23;;;;;;;5.13;1.20;;;17.30;78.90;;;;;;5045402;28;20024;-64
2021/10/01 11:31:58;;;;;;;5.30;1.20;;;17.10;80.50;;;;;;5047813;28;20056;-63
2021/10/01 11:34:43;;;;;;;4.03;0.70;;;16.90;81.70;;;;;;5046115;28;20017;-64
2021/10/01 11:37:41;;;;;;;3.60;0.60;;;16.70;83.20;;;;;;5047649;28;20548;-64
2021/10/01 11:40:18;;;;;;;1.77;0.50;;;16.60;82.60;;;;;;5031240;28;20025;-64
2021/10/01 11:42:45;;;;;;;3.13;0.82;;;16.50;83.90;;;;;;5039451;28;20031;-64
2021/10/01 11:45:32;;;;;;;5.80;0.60;;;16.40;84.60;;;;;;5043718;28;20500;-63
2021/10/01 11:48:02;;;;;;;4.65;0.90;;;16.50;84.80;;;;;;5041497;28;20014;-64
2021/10/01 11:50:39;;;;;;;3.20;0.60;;;16.60;83.10;;;;;;5045492;28;20023;-63
2021/10/01 11:53:27;;;;;;;2.85;0.60;;;16.60;82.80;;;;;;5046871;28;20027;-64
2021/10/01 11:56:03;;;;;;;2.60;0.60;;;16.70;81.80;;;;;;5051518;28;20017;-63
2021/10/01 11:58:31;;;;;;;2.05;0.80;;;16.80;81.80;;;;;;5051611;28;20021;-64
2021/10/01 12:01:10;;;;;;;2.30;0.60;;;16.80;82.60;;;;;;5043178;28;20072;-64
2021/10/01 12:03:45;;;;;;;;;;;16.90;81.10;;;;;;5051179;28;20025;-64
2021/10/01 12:06:11;;;;;;;3.33;0.80;;;17.00;81.40;;;;;;5044879;28;19905;-64
2021/10/01 12:08:39;;;;;;;2.28;0.60;;;17.00;80.20;;;;;;5049676;28;20017;-64
2021/10/01 12:11:05;;;;;;;5.47;0.63;;;17.10;79.30;;;;;;5049046;28;20021;-64
2021/10/01 12:13:33;;;;;;;3.13;0.82;;;17.20;78.80;;;;;;5050169;28;20013;-64
2021/10/01 12:16:00;;;;;;;2.33;0.60;;;17.20;78.20;;;;;;5055253;28;20029;-64
2021/10/01 12:18:32;;;;;;;5.13;0.82;;;17.10;77.50;;;;;;5037276;28;20017;-64
2021/10/01 12:21:01;;;;;;;2.10;0.60;;;17.20;77.90;;;;;;5055288;28;20024;-63
2021/10/01 12:23:39;;;;;;;5.27;1.07;;;17.10;77.20;;;;;;5037291;28;20036;-64
2021/10/01 12:26:23;;;;;;;5.43;0.80;;;17.10;76.30;;;;;;5046323;28;20079;-64
2021/10/01 12:28:58;;;;;;;4.80;0.80;;;17.20;76.60;;;;;;5035399;28;20477;-64
2021/10/01 12:31:29;;;;;;;4.38;0.90;;;17.10;76.30;;;;;;5044105;28;20021;-64
2021/10/01 12:33:59;;;;;;;3.20;0.80;;;17.10;76.10;;;;;;5048986;28;20108;-64
2021/10/01 12:36:26;;;;;;;3.50;0.85;;;17.10;76.80;;;;;;5034976;28;20033;-64
2021/10/01 12:39:02;;;;;;;4.85;0.80;;;17.20;76.20;;;;;;5048956;28;20079;-64
2021/10/01 12:41:31;;;;;;;2.65;0.63;;;17.50;76.20;;;;;;5034984;28;20370;-63
2021/10/01 12:44:00;;;;;;;7.07;0.70;;;17.80;75.00;;;;;;5048543;28;20050;-64
2021/10/01 12:46:33;;;;;;;3.17;0.60;;;18.00;74.40;;;;;;5034697;28;20107;-64
2021/10/01 12:49:17;;;;;;;3.90;0.60;;;18.00;73.20;;;;;;5047402;28;20029;-64
2021/10/01 12:51:45;;;;;;;3.40;0.70;;;17.90;73.60;;;;;;5034883;28;20474;-64
2021/10/01 12:54:25;;;;;;;5.63;1.50;;;17.90;73.60;;;;;;5048223;28;20495;-64
2021/10/01 12:57:15;;;;;;;3.28;0.70;;;17.80;72.60;;;;;;5034710;28;20029;-64
2021/10/01 13:00:01;;;;;;;2.42;0.75;;;17.90;73.00;;;;;;5034781;28;20096;-64
2021/10/01 13:02:27;;;;;;;6.10;1.00;;;18.00;73.60;;;;;;5051594;28;20415;-63
2021/10/01 13:04:59;;;;;;;7.35;1.10;;;18.00;71.70;;;;;;5044224;28;20083;-64
2021/10/01 13:07:46;;;;;;;6.28;1.70;;;18.00;72.30;;;;;;5033072;28;20031;-64
2021/10/01 13:10:15;;;;;;;7.00;1.27;;;18.10;72.00;;;;;;5034335;28;20037;-63
2021/10/01 13:12:59;;;;;;;3.05;1.05;;;18.10;71.80;;;;;;5034066;28;20021;-64
2021/10/01 13:15:27;;;;;;;3.65;0.82;;;18.10;72.50;;;;;;5034399;28;20021;-64
2021/10/01 13:18:02;;;;;;;5.03;0.77;;;18.00;71.80;;;;;;5034302;28;20122;-64
2021/10/01 13:20:28;;;;;;;3.88;0.70;;;17.90;72.30;;;;;;5051547;28;20037;-64
2021/10/01 13:23:06;;;;;;;2.00;0.60;;;17.90;72.30;;;;;;5036322;28;20026;-63
2021/10/01 13:25:51;;;;;;;3.13;0.80;;;17.90;71.80;;;;;;5034066;28;20026;-64
2021/10/01 13:28:18;;;;;;;6.22;0.70;;;17.90;71.30;;;;;;5053557;28;20020;-63
2021/10/01 13:30:45;;;;;;;1.88;0.65;;;17.90;71.10;;;;;;5048539;28;20051;-63
2021/10/01 13:33:11;;;;;;;4.68;0.68;;;18.00;72.60;;;;;;5048777;28;20032;-63
2021/10/01 13:35:37;;;;;;;6.22;0.90;;;18.00;72.30;;;;;;5047399;28;20016;-63
2021/10/01 13:38:04;;;;;;;3.42;1.00;;;18.00;72.60;;;;;;5052035;28;20040;-63
2021/10/01 13:40:30;;;;;;;5.25;0.55;;;17.90;72.40;;;;;;5052539;28;20021;-63
2021/10/01 13:42:56;;;;;;;1.58;0.50;;;17.80;71.70;;;;;;5049916;28;20028;-64
2021/10/01 13:45:22;;;;;;;3.10;0.80;;;17.90;72.50;;;;;;5045305;28;20460;-63
2021/10/01 13:47:47;;;;;;;4.20;0.60;;;17.90;72.40;;;;;;5047355;28;20043;-63
2021/10/01 13:50:16;;;;;;;3.67;0.70;;;17.90;71.60;;;;;;5045468;28;20067;-64
2021/10/01 13:52:42;;;;;;;3.38;0.70;;;17.90;71.30;;;;;;5048873;28;20045;-64
2021/10/01 13:55:09;;;;;;;2.63;0.70;;;17.90;72.40;;;;;;5043616;28;20087;-63
2021/10/01 13:57:35;;;;;;;4.32;0.70;;;17.80;71.50;;;;;;5048783;28;20031;-63
2021/10/01 14:00:00;;;;;;;3.70;0.90;;;17.80;72.20;;;;;;5048067;28;20116;-63
2021/10/01 14:02:26;;;;;;;5.10;1.48;;;17.70;72.70;;;;;;5048532;28;20024;-63
2021/10/01 14:04:52;;;;;;;4.28;0.57;;;17.70;72.60;;;;;;5040072;28;20128;-63
2021/10/01 14:07:17;;;;;;;4.50;0.70;;;17.70;72.40;;;;;;5044891;28;20025;-63
2021/10/01 14:09:43;;;;;;;3.08;1.10;;;17.70;72.40;;;;;;5046818;28;20441;-63
2021/10/01 14:12:09;;;;;;;2.60;0.73;;;17.70;72.10;;;;;;5053159;28;20029;-63
2021/10/01 14:14:35;;;;;;;4.38;0.68;;;17.70;72.60;;;;;;5040005;28;20060;-63
2021/10/01 14:17:01;;;;;;;3.20;1.02;;;17.80;72.60;;;;;;5047078;28;20051;-63
2021/10/01 14:19:26;;;;;;;4.07;0.75;;;17.90;72.70;;;;;;5045089;28;20025;-64
2021/10/01 14:21:52;;;;;;;6.82;1.48;;;17.90;73.00;;;;;;5052259;28;20055;-64
2021/10/01 14:24:17;;;;;;;6.38;0.90;;;17.90;72.00;;;;;;5047171;28;20056;-63
2021/10/01 14:26:43;;;;;;;6.80;1.45;;;17.90;73.10;;;;;;5035354;28;20104;-63
2021/10/01 14:29:08;;;;;;;2.60;0.75;;;17.90;72.50;;;;;;5040878;28;20037;-63